Reykjavik, Iceland
Current Conditions -  °F | °C
As of 10:00 AM on Thursday 29 Jan 2015 (Local Time) from BIRK Reporting Station
Scattered Clouds Scattered Clouds  
Wind Chill: 22°   Ceiling: Unl
Heat Index: 34°   Visibility: 6mi
Dew Point: 23°   Wind: 22mph
Humidity: 65%   Direction: 20°NNE
Pressure: 29.41"   Gusts: 35mph
Location:  64.14°N, 21.92°W
Report Text: BIRK 291000Z 02019G30KT 360V060 9999 FEW030 SCT038 01/M05 Q0996 R01/990146
Loading
Personal Weather Stations






























Interactive Weather Map New forecast layout! Learn more

10-Day Weather Forecast

Advertisements
Track Severe Weather on mobile